createdAt,value
2023-01-11T02:14:55.062Z,3.60
2023-01-11T02:17:22.098Z,4.70
2023-01-11T02:19:58.079Z,4.70
2023-01-11T02:22:46.491Z,3.80
2023-01-11T02:25:46.159Z,3.30
2023-01-11T02:28:32.875Z,2.60
2023-01-11T02:31:15.911Z,2.40
2023-01-11T02:34:06.253Z,2.70
2023-01-11T02:42:04.386Z,1.70
2023-01-11T02:44:55.550Z,2.20
2023-01-11T02:47:42.149Z,2.30
2023-01-11T02:50:17.403Z,2.80
2023-01-11T02:53:06.098Z,2.40
2023-01-11T02:55:37.852Z,2.00
2023-01-11T02:58:08.120Z,2.80
2023-01-11T03:00:38.722Z,2.90
2023-01-11T03:03:16.766Z,2.50
2023-01-11T03:05:55.669Z,2.70
2023-01-11T03:08:52.093Z,3.50
2023-01-11T03:11:49.651Z,3.50
2023-01-11T03:14:19.654Z,3.50
2023-01-11T03:17:07.601Z,2.90
2023-01-11T03:19:43.207Z,2.80
2023-01-11T03:22:16.159Z,2.40
2023-01-11T03:25:13.612Z,2.00
2023-01-11T03:27:53.299Z,2.00
2023-01-11T03:30:43.643Z,3.80
2023-01-11T03:33:16.159Z,2.20
2023-01-11T03:35:47.292Z,2.50
2023-01-11T03:38:19.615Z,3.40
2023-01-11T03:40:52.330Z,2.70
2023-01-11T03:43:19.445Z,2.30
2023-01-11T03:45:53.690Z,2.30
2023-01-11T03:48:31.537Z,2.70
2023-01-11T03:50:58.943Z,2.10
2023-01-11T03:53:26.156Z,2.80
2023-01-11T03:55:56.368Z,2.10
2023-01-11T04:00:50.557Z,1.80
2023-01-11T04:03:17.411Z,2.90
2023-01-11T04:05:45.512Z,2.80
2023-01-11T04:08:12.258Z,2.90
2023-01-11T04:10:41.203Z,2.50
2023-01-11T04:13:08.329Z,2.50
2023-01-11T04:15:35.987Z,2.00
2023-01-11T04:18:07.153Z,2.00
2023-01-11T04:20:40.700Z,1.70
2023-01-11T04:23:08.487Z,2.30
2023-01-11T04:25:35.688Z,1.90
2023-01-11T04:28:02.648Z,2.00
2023-01-11T04:30:29.742Z,2.50
2023-01-11T04:33:00.030Z,2.00
2023-01-11T04:35:27.049Z,2.20
2023-01-11T04:37:58.256Z,2.20
2023-01-11T04:40:25.221Z,2.70
2023-01-11T04:42:52.342Z,1.80
2023-01-11T04:45:19.536Z,2.20
2023-01-11T04:47:46.569Z,2.10
2023-01-11T04:50:13.546Z,3.00
2023-01-11T04:52:41.898Z,3.50
2023-01-11T04:55:09.575Z,2.80
2023-01-11T04:57:36.586Z,2.90
2023-01-11T05:00:10.708Z,2.30
2023-01-11T05:02:38.814Z,2.70
2023-01-11T05:05:06.842Z,3.00
2023-01-11T05:07:34.310Z,2.70
2023-01-11T05:10:02.330Z,3.10
2023-01-11T05:12:29.469Z,3.10
2023-01-11T05:14:57.396Z,2.20
2023-01-11T05:17:25.030Z,2.60
2023-01-11T05:19:51.878Z,2.10
2023-01-11T05:22:18.717Z,1.90
2023-01-11T05:24:47.201Z,2.40
2023-01-11T05:27:14.387Z,3.50
2023-01-11T05:29:41.223Z,3.50
2023-01-11T05:32:08.224Z,2.90
2023-01-11T05:34:35.345Z,1.60
2023-01-11T05:37:02.197Z,2.60
2023-01-11T05:39:32.573Z,3.40
2023-01-11T05:41:59.406Z,3.00
2023-01-11T05:44:45.297Z,2.20
2023-01-11T05:47:12.164Z,2.00
2023-01-11T05:49:39.944Z,2.30
2023-01-11T05:52:06.943Z,2.10
2023-01-11T05:54:35.346Z,2.60
2023-01-11T05:57:02.589Z,2.50
2023-01-11T05:59:32.134Z,2.50
2023-01-11T06:01:59.393Z,2.60
2023-01-11T06:04:27.532Z,2.20
2023-01-11T10:34:05.960Z,17.40
2023-01-11T10:37:07.289Z,14.60
2023-01-11T10:40:39.933Z,11.00
2023-01-11T10:43:13.035Z,6.80
2023-01-11T10:45:47.500Z,4.70
2023-01-11T10:48:28.030Z,5.20
2023-01-11T10:51:15.108Z,7.90
2023-01-11T10:54:14.417Z,17.30
2023-01-11T10:57:14.108Z,16.60
2023-01-11T11:00:22.811Z,9.50
2023-01-11T11:03:20.192Z,8.40
2023-01-11T11:06:05.577Z,7.20
2023-01-11T11:08:44.673Z,8.60
2023-01-11T11:11:15.432Z,11.00
2023-01-11T11:13:52.079Z,35.30
2023-01-11T11:16:24.822Z,16.00
2023-01-11T11:18:53.246Z,7.40
2023-01-11T11:21:23.957Z,8.70
2023-01-11T11:24:02.114Z,6.90
2023-01-11T11:26:41.352Z,9.20
2023-01-11T11:29:10.176Z,10.90
2023-01-11T11:31:38.715Z,10.70
2023-01-11T11:34:12.745Z,8.50
2023-01-11T11:36:42.320Z,4.70
2023-01-11T11:39:10.273Z,4.80
2023-01-11T11:41:53.941Z,4.40
2023-01-11T11:44:25.689Z,4.90
2023-01-11T11:47:06.432Z,4.80
2023-01-11T11:49:34.735Z,5.20
2023-01-11T11:52:02.770Z,5.00
2023-01-11T11:54:35.136Z,5.10
2023-01-11T11:57:23.326Z,6.80
2023-01-11T11:59:53.800Z,7.10
2023-01-11T12:02:28.943Z,5.40
2023-01-11T12:04:58.211Z,5.60
2023-01-11T12:07:33.073Z,4.90
2023-01-11T12:10:02.805Z,6.30
2023-01-11T12:12:31.796Z,6.70
2023-01-11T12:15:18.814Z,7.00
2023-01-11T12:17:45.836Z,6.30
2023-01-11T12:20:22.029Z,5.20
2023-01-11T12:42:56.773Z,5.10
2023-01-11T12:45:51.972Z,5.50
2023-01-11T12:48:28.725Z,5.40
2023-01-11T12:51:17.680Z,6.70
2023-01-11T12:54:06.568Z,6.70
2023-01-11T12:57:01.373Z,7.50
2023-01-11T12:59:37.531Z,5.50
2023-01-11T13:02:07.251Z,6.10
2023-01-11T13:04:58.614Z,8.20
2023-01-11T13:07:58.160Z,18.30
2023-01-11T13:16:37.519Z,6.80
2023-01-11T13:19:11.133Z,6.50
2023-01-11T13:21:43.429Z,6.40
2023-01-11T13:24:15.578Z,5.80
2023-01-11T13:26:45.094Z,5.40
2023-01-11T13:29:27.463Z,7.40
2023-01-11T13:31:55.120Z,9.80
2023-01-11T13:34:27.200Z,11.00
2023-01-11T13:36:58.034Z,13.50
2023-01-11T13:39:46.181Z,14.30
2023-01-11T13:42:35.971Z,10.20
2023-01-11T13:45:46.882Z,9.40
2023-01-11T13:48:46.649Z,6.80
2023-01-11T13:51:35.284Z,8.40
2023-01-11T13:54:04.460Z,12.00
2023-01-11T13:56:34.310Z,11.80
2023-01-11T13:59:15.860Z,9.20
2023-01-11T14:01:55.759Z,8.80
2023-01-11T14:04:24.965Z,7.10
2023-01-11T14:06:58.783Z,7.60
2023-01-11T14:10:07.648Z,6.10
2023-01-11T18:33:24.767Z,16.80
2023-01-11T18:35:58.269Z,11.60
2023-01-11T18:38:30.683Z,9.90
2023-01-11T18:40:58.515Z,10.00
2023-01-11T18:43:29.918Z,11.00
2023-01-11T18:45:57.335Z,8.60
2023-01-11T18:48:24.271Z,6.40
2023-01-11T18:50:52.145Z,6.10
2023-01-11T18:53:19.607Z,6.30
2023-01-11T18:55:46.831Z,7.70
2023-01-11T18:58:15.221Z,8.80
2023-01-11T19:00:42.564Z,13.80
2023-01-11T19:03:10.543Z,10.50
2023-01-11T19:05:38.497Z,7.80
2023-01-11T19:08:06.150Z,8.00
2023-01-11T19:10:33.324Z,6.30
2023-01-11T19:13:01.786Z,6.70
2023-01-11T19:15:29.079Z,5.00
2023-01-11T19:17:56.560Z,5.50
2023-01-11T19:20:23.795Z,3.60
2023-01-11T19:22:50.936Z,4.80
2023-01-11T19:25:18.148Z,4.50
2023-01-11T19:27:44.988Z,5.00
2023-01-11T19:30:13.281Z,5.60
2023-01-11T19:32:40.432Z,6.40
2023-01-11T19:35:08.367Z,6.00
2023-01-11T19:37:37.809Z,5.60
2023-01-11T19:40:09.548Z,5.70
2023-01-11T19:42:38.452Z,5.40
2023-01-11T19:45:06.222Z,5.50
2023-01-11T19:47:33.906Z,5.40
2023-01-11T19:50:01.480Z,6.50
2023-01-11T19:52:28.529Z,3.70
2023-01-11T19:54:55.556Z,6.30
2023-01-11T19:57:22.629Z,5.80
2023-01-11T19:59:49.697Z,6.20
2023-01-11T20:02:18.034Z,6.40
2023-01-11T20:04:45.310Z,5.60
2023-01-11T20:07:12.808Z,5.90
2023-01-11T20:09:40.887Z,4.90
2023-01-11T20:12:09.391Z,5.40
2023-01-11T20:20:30.867Z,6.50
2023-01-11T20:22:58.039Z,5.80
2023-01-11T20:25:25.882Z,4.40
2023-01-11T20:27:52.780Z,5.20
2023-01-11T20:30:19.787Z,5.10
2023-01-11T20:32:46.939Z,4.30
2023-01-11T20:35:13.874Z,6.40
2023-01-11T20:37:41.102Z,9.60
2023-01-11T20:40:09.301Z,6.30
2023-01-11T20:42:36.783Z,5.30
2023-01-11T20:45:04.263Z,4.90
2023-01-11T20:47:32.915Z,4.70
2023-01-11T20:50:00.295Z,5.20
2023-01-11T20:52:27.174Z,6.00
2023-01-11T20:54:54.659Z,5.20
2023-01-11T20:57:22.113Z,5.90
2023-01-11T20:59:48.966Z,4.30
2023-01-11T21:02:15.757Z,4.30
2023-01-11T21:04:43.246Z,5.10
2023-01-11T21:07:10.776Z,5.90
2023-01-11T21:09:37.975Z,6.70
2023-01-11T21:12:09.473Z,6.70
2023-01-11T21:14:36.662Z,6.20
2023-01-11T21:17:03.613Z,5.70
2023-01-11T21:19:31.564Z,4.70
2023-01-11T21:21:58.669Z,4.40
2023-01-11T21:24:25.562Z,5.10
2023-01-11T21:26:52.596Z,4.50
2023-01-11T21:29:19.965Z,4.20
2023-01-11T21:31:46.958Z,5.20
2023-01-11T21:34:14.721Z,7.50
2023-01-11T21:36:42.863Z,5.60
2023-01-11T21:39:11.960Z,3.80
2023-01-11T21:41:56.516Z,5.50
2023-01-11T21:44:31.135Z,4.80
2023-01-11T21:46:58.213Z,5.00
2023-01-11T21:49:27.402Z,7.60
2023-01-11T21:51:54.483Z,6.20
2023-01-11T21:54:21.465Z,5.80
2023-01-11T21:56:48.697Z,4.90
2023-01-11T21:59:15.755Z,5.30
2023-01-11T22:01:44.537Z,4.50
2023-01-11T22:04:13.673Z,3.80
2023-01-11T22:06:42.827Z,4.00
2023-01-11T22:09:10.610Z,4.20
2023-01-11T22:11:39.368Z,4.10
2023-01-11T22:14:08.726Z,3.50
2023-01-11T22:16:37.149Z,4.10
2023-01-11T22:19:06.736Z,5.00
2023-01-11T22:21:33.526Z,5.00
2023-01-11T22:24:00.560Z,5.00
2023-01-11T22:26:30.023Z,5.90
